createdAt,value
2023-06-25T00:01:50.010Z,53.76
2023-06-25T00:04:16.487Z,53.70
2023-06-25T00:06:43.135Z,53.86
2023-06-25T00:09:10.156Z,53.96
2023-06-25T00:11:36.694Z,53.98
2023-06-25T00:14:03.724Z,54.14
2023-06-25T00:16:30.521Z,53.87
2023-06-25T00:18:57.633Z,54.01
2023-06-25T00:21:24.445Z,53.97
2023-06-25T00:23:50.884Z,53.91
2023-06-25T00:26:17.340Z,54.04
2023-06-25T00:28:43.891Z,54.20
2023-06-25T00:31:15.122Z,54.15
2023-06-25T00:33:44.715Z,54.18
2023-06-25T00:36:11.236Z,54.40
2023-06-25T00:38:40.205Z,54.35
2023-06-25T00:41:09.687Z,54.39
2023-06-25T00:43:42.600Z,54.31
2023-06-25T00:46:13.795Z,54.38
2023-06-25T00:48:47.633Z,54.49
2023-06-25T00:51:15.722Z,54.38
2023-06-25T00:53:42.649Z,54.83
2023-06-25T00:56:09.096Z,54.61
2023-06-25T00:58:39.477Z,54.83
2023-06-25T01:01:28.034Z,54.46
2023-06-25T01:04:01.457Z,54.89
2023-06-25T01:06:36.705Z,54.59
2023-06-25T01:09:04.103Z,54.88
2023-06-25T01:11:30.814Z,54.82
2023-06-25T01:13:57.521Z,55.17
2023-06-25T01:16:24.724Z,55.04
2023-06-25T01:19:03.961Z,54.99
2023-06-25T01:21:32.252Z,55.14
2023-06-25T01:23:59.363Z,55.07
2023-06-25T01:26:25.904Z,55.15
2023-06-25T01:28:56.823Z,55.18
2023-06-25T01:31:25.712Z,55.15
2023-06-25T01:33:52.626Z,55.28
2023-06-25T01:36:19.353Z,55.39
2023-06-25T01:38:45.839Z,55.48
2023-06-25T01:41:12.364Z,55.59
2023-06-25T01:43:39.108Z,55.33
2023-06-25T01:46:05.672Z,55.45
2023-06-25T01:48:32.231Z,55.54
2023-06-25T01:50:59.228Z,55.42
2023-06-25T01:53:26.521Z,55.55
2023-06-25T01:55:53.583Z,55.49
2023-06-25T01:58:20.278Z,55.61
2023-06-25T02:00:46.832Z,55.47
2023-06-25T02:03:15.992Z,55.46
2023-06-25T02:05:43.258Z,55.68
2023-06-25T02:08:09.983Z,55.70
2023-06-25T02:10:37.158Z,55.58
2023-06-25T02:13:03.652Z,55.78
2023-06-25T02:15:30.930Z,55.79
2023-06-25T02:17:57.456Z,55.87
2023-06-25T02:20:24.003Z,55.83
2023-06-25T02:22:51.414Z,55.86
2023-06-25T02:25:17.934Z,55.76
2023-06-25T02:27:44.443Z,55.91
2023-06-25T02:30:11.624Z,56.03
2023-06-25T02:32:38.819Z,55.88
2023-06-25T02:35:05.741Z,55.92
2023-06-25T02:37:32.602Z,55.89
2023-06-25T02:39:59.054Z,56.12
2023-06-25T02:42:25.645Z,56.05
2023-06-25T02:44:52.105Z,56.22
2023-06-25T02:47:18.873Z,56.13
2023-06-25T02:49:45.441Z,56.13
2023-06-25T02:52:12.389Z,56.22
2023-06-25T02:54:39.326Z,56.44
2023-06-25T02:57:05.906Z,56.37
2023-06-25T02:59:32.535Z,56.16
2023-06-25T03:01:59.683Z,56.25
2023-06-25T03:04:26.195Z,56.53
2023-06-25T03:06:52.797Z,56.50
2023-06-25T03:09:19.439Z,56.19
2023-06-25T03:11:45.960Z,56.59
2023-06-25T03:14:18.968Z,56.33
2023-06-25T03:16:56.218Z,56.34
2023-06-25T03:19:22.816Z,56.40
2023-06-25T03:21:49.301Z,56.57
2023-06-25T03:24:16.443Z,56.56
2023-06-25T03:26:43.085Z,56.67
2023-06-25T03:29:09.792Z,56.73
2023-06-25T03:31:36.317Z,56.75
2023-06-25T03:34:05.274Z,56.66
2023-06-25T03:36:32.699Z,56.44
2023-06-25T03:38:59.289Z,56.67
2023-06-25T03:41:26.962Z,56.66
2023-06-25T03:43:54.176Z,56.67
2023-06-25T03:46:20.869Z,56.55
2023-06-25T03:48:48.940Z,56.75
2023-06-25T03:51:15.514Z,56.77
2023-06-25T03:53:44.373Z,57.16
2023-06-25T03:56:11.005Z,57.01
2023-06-25T03:58:37.751Z,56.97
2023-06-25T04:01:04.394Z,56.72
2023-06-25T04:03:30.962Z,57.09
2023-06-25T04:05:57.455Z,57.38
2023-06-25T04:08:23.940Z,57.27
2023-06-25T04:10:52.193Z,57.38
2023-06-25T04:13:18.824Z,57.45
2023-06-25T04:15:45.386Z,57.42
2023-06-25T04:18:11.858Z,57.41
2023-06-25T04:20:38.285Z,57.55
2023-06-25T04:23:04.979Z,57.51
2023-06-25T04:25:32.237Z,57.40
2023-06-25T04:27:59.248Z,57.66
2023-06-25T04:30:26.136Z,57.44
2023-06-25T04:32:54.382Z,57.44
2023-06-25T04:35:22.106Z,57.67
2023-06-25T04:37:48.753Z,57.47
2023-06-25T04:40:15.419Z,57.59
2023-06-25T04:42:42.221Z,57.42
2023-06-25T04:45:09.371Z,57.61
2023-06-25T04:47:35.929Z,57.55
2023-06-25T04:50:03.258Z,57.41
2023-06-25T04:52:30.507Z,57.48
2023-06-25T04:54:56.959Z,57.65
2023-06-25T04:57:23.446Z,57.53
2023-06-25T04:59:50.366Z,57.62
2023-06-25T05:02:16.961Z,57.71
2023-06-25T05:04:45.153Z,57.72
2023-06-25T05:07:13.352Z,57.83
2023-06-25T05:09:39.820Z,57.61
2023-06-25T05:12:06.743Z,57.62
2023-06-25T05:14:33.219Z,58.06
2023-06-25T05:16:59.664Z,57.75
2023-06-25T05:19:26.139Z,57.56
2023-06-25T05:21:52.640Z,57.67
2023-06-25T05:24:19.301Z,57.67
2023-06-25T05:26:46.359Z,57.54
2023-06-25T05:29:12.816Z,57.91
2023-06-25T05:31:39.462Z,57.75
2023-06-25T05:34:06.177Z,58.00
2023-06-25T05:36:32.671Z,57.88
2023-06-25T05:38:59.144Z,57.86
2023-06-25T05:41:25.596Z,57.92
2023-06-25T05:43:52.155Z,57.64
2023-06-25T05:46:18.747Z,58.11
2023-06-25T05:48:45.633Z,58.13
2023-06-25T05:51:12.195Z,57.82
2023-06-25T05:53:41.190Z,57.70
2023-06-25T05:56:08.421Z,57.66
2023-06-25T05:58:35.896Z,57.59
2023-06-25T06:01:03.032Z,57.39
2023-06-25T06:03:29.532Z,57.16
2023-06-25T06:05:58.285Z,57.46
2023-06-25T06:08:25.587Z,57.34
2023-06-25T06:10:52.131Z,57.49
2023-06-25T06:13:18.630Z,57.56
2023-06-25T06:15:45.059Z,57.44
2023-06-25T06:18:12.820Z,57.57
2023-06-25T06:20:39.371Z,57.43
2023-06-25T06:23:05.840Z,57.41
2023-06-25T06:25:32.537Z,57.31
2023-06-25T06:27:58.981Z,57.42
2023-06-25T06:30:25.425Z,57.26
2023-06-25T06:32:51.903Z,57.25
2023-06-25T06:35:18.565Z,57.31
2023-06-25T06:37:45.012Z,57.18
2023-06-25T06:40:11.607Z,57.51
2023-06-25T06:42:38.046Z,57.57
2023-06-25T06:45:05.084Z,57.75
2023-06-25T06:47:31.605Z,57.84
2023-06-25T06:49:59.640Z,57.50
2023-06-25T06:52:26.977Z,58.01
2023-06-25T06:54:53.492Z,58.02
2023-06-25T06:57:19.959Z,58.08
2023-06-25T06:59:46.557Z,58.15
2023-06-25T07:02:13.032Z,58.18
2023-06-25T07:04:40.093Z,58.25
2023-06-25T07:07:07.176Z,58.36
2023-06-25T07:09:33.698Z,58.22
2023-06-25T07:12:00.194Z,58.02
2023-06-25T07:14:26.703Z,58.38
2023-06-25T07:16:53.211Z,58.34
2023-06-25T07:19:19.687Z,58.42
2023-06-25T07:21:46.121Z,58.42
2023-06-25T07:24:13.007Z,58.39
2023-06-25T07:26:39.471Z,58.01
2023-06-25T07:29:05.952Z,58.26
2023-06-25T07:31:32.438Z,58.31
2023-06-25T07:33:58.947Z,58.04
2023-06-25T07:36:25.401Z,58.45
2023-06-25T07:38:51.979Z,58.21
2023-06-25T07:41:18.460Z,58.07
2023-06-25T07:43:44.907Z,57.70
2023-06-25T07:46:11.519Z,57.98
2023-06-25T07:48:37.994Z,57.74
2023-06-25T07:51:04.523Z,57.76
2023-06-25T07:53:30.978Z,58.04
2023-06-25T07:56:02.811Z,57.79
2023-06-25T07:58:30.393Z,57.77
2023-06-25T08:00:56.948Z,57.46
2023-06-25T08:03:23.640Z,57.59
2023-06-25T08:05:50.324Z,57.41
2023-06-25T08:08:16.779Z,57.36
2023-06-25T08:10:43.386Z,57.19
2023-06-25T08:13:09.967Z,57.54
2023-06-25T08:15:36.744Z,57.22
2023-06-25T08:18:03.382Z,57.17
2023-06-25T08:20:32.131Z,57.10
2023-06-25T08:22:58.602Z,56.99
2023-06-25T08:25:27.432Z,57.24
2023-06-25T08:27:53.951Z,56.96
2023-06-25T08:30:20.448Z,57.12
2023-06-25T08:32:47.010Z,57.08
2023-06-25T08:35:13.793Z,57.11
2023-06-25T08:37:40.242Z,56.78
2023-06-25T08:40:07.220Z,56.74
2023-06-25T08:42:33.804Z,56.97
2023-06-25T08:45:00.360Z,56.82
2023-06-25T08:47:30.631Z,56.80
2023-06-25T08:49:57.328Z,56.88
2023-06-25T08:52:25.396Z,56.59
2023-06-25T08:54:52.133Z,56.66
2023-06-25T08:57:18.822Z,56.48
2023-06-25T08:59:45.317Z,56.56
2023-06-25T09:02:11.915Z,56.43
2023-06-25T09:04:38.559Z,56.37
2023-06-25T09:07:09.533Z,56.18
2023-06-25T09:09:36.097Z,56.34
2023-06-25T09:12:02.724Z,56.06
2023-06-25T09:14:31.164Z,56.16
2023-06-25T09:16:57.977Z,56.47
2023-06-25T09:19:24.879Z,56.23
2023-06-25T09:21:51.386Z,56.05
2023-06-25T09:24:20.316Z,56.25
2023-06-25T09:26:52.000Z,56.09
2023-06-25T09:29:20.195Z,56.16
2023-06-25T09:31:47.982Z,55.89
2023-06-25T09:34:19.202Z,55.81
2023-06-25T09:36:46.168Z,55.91
2023-06-25T09:39:13.409Z,55.82
2023-06-25T09:41:44.436Z,55.82
2023-06-25T09:44:11.995Z,55.81
2023-06-25T09:46:41.510Z,55.82
2023-06-25T09:49:11.072Z,55.78
2023-06-25T09:51:56.713Z,55.77
2023-06-25T09:54:24.642Z,55.58
2023-06-25T09:56:52.519Z,55.57
2023-06-25T09:59:19.880Z,55.63
2023-06-25T10:01:47.480Z,55.61
2023-06-25T10:04:14.125Z,55.48
2023-06-25T10:06:41.127Z,55.39
2023-06-25T10:09:08.267Z,54.85
2023-06-25T10:11:36.566Z,54.95
2023-06-25T10:14:05.939Z,54.78
2023-06-25T10:16:39.079Z,54.57
2023-06-25T10:19:06.847Z,54.58
2023-06-25T10:21:33.461Z,54.73
2023-06-25T10:24:02.398Z,54.95
2023-06-25T10:26:34.164Z,54.91
2023-06-25T10:29:02.259Z,54.61
2023-06-25T10:31:38.636Z,54.72
2023-06-25T10:34:07.019Z,54.80
2023-06-25T10:36:34.136Z,54.57
2023-06-25T10:39:01.292Z,54.40
2023-06-25T10:41:31.784Z,54.60
2023-06-25T10:43:59.521Z,54.48
2023-06-25T10:46:35.822Z,54.44
2023-06-25T10:49:03.612Z,54.08
2023-06-25T10:51:30.293Z,54.32
2023-06-25T10:53:57.691Z,54.50
2023-06-25T10:56:24.228Z,54.45
2023-06-25T10:59:00.141Z,54.53
2023-06-25T11:01:33.304Z,54.17
2023-06-25T11:04:00.003Z,54.45
2023-06-25T11:06:26.541Z,54.52
2023-06-25T11:08:54.777Z,54.14
2023-06-25T11:11:22.129Z,54.48
2023-06-25T11:13:49.194Z,54.06
2023-06-25T11:16:15.748Z,54.21
2023-06-25T11:18:42.198Z,54.20
2023-06-25T11:21:09.677Z,54.15
2023-06-25T11:23:36.131Z,54.14
2023-06-25T11:26:04.164Z,54.12
2023-06-25T11:28:30.949Z,54.08
2023-06-25T11:30:59.557Z,53.92
2023-06-25T11:33:26.537Z,53.91
2023-06-25T11:36:06.119Z,54.26
2023-06-25T11:38:32.718Z,54.13
2023-06-25T11:40:59.666Z,53.92
2023-06-25T11:43:27.557Z,53.86
2023-06-25T11:45:54.632Z,53.81
2023-06-25T11:48:21.569Z,54.04
2023-06-25T11:50:50.256Z,53.74
2023-06-25T11:53:17.169Z,53.74
2023-06-25T11:55:43.772Z,53.89
2023-06-25T11:58:11.096Z,54.13
2023-06-25T12:00:38.092Z,53.96
2023-06-25T12:03:04.829Z,53.81
2023-06-25T12:05:31.432Z,53.77
2023-06-25T12:07:57.878Z,53.64
2023-06-25T12:10:25.905Z,53.95
2023-06-25T12:12:53.829Z,53.78
2023-06-25T12:15:20.560Z,53.69
2023-06-25T12:17:47.156Z,53.75
2023-06-25T12:20:13.704Z,53.76
2023-06-25T12:22:40.148Z,53.65
2023-06-25T12:25:06.900Z,53.84
2023-06-25T12:27:33.515Z,53.76
2023-06-25T12:30:01.993Z,53.58
2023-06-25T12:32:28.728Z,53.61
2023-06-25T12:34:55.221Z,53.61
2023-06-25T12:37:21.716Z,53.60
2023-06-25T12:39:49.386Z,53.68
2023-06-25T12:42:15.845Z,53.48
2023-06-25T12:44:42.317Z,53.37
2023-06-25T12:47:08.760Z,53.64
2023-06-25T12:49:35.259Z,53.17
2023-06-25T12:52:02.448Z,53.35
2023-06-25T12:54:28.898Z,53.41
2023-06-25T12:56:55.358Z,53.38
2023-06-25T12:59:21.809Z,53.09
2023-06-25T13:01:48.310Z,53.16
2023-06-25T13:04:14.955Z,52.85
2023-06-25T13:06:41.725Z,53.11
2023-06-25T13:09:08.227Z,53.08
2023-06-25T13:11:35.555Z,53.03
2023-06-25T13:14:02.198Z,52.69
2023-06-25T13:16:29.005Z,52.99
2023-06-25T13:18:55.738Z,52.58
2023-06-25T13:21:22.256Z,52.64
2023-06-25T13:23:48.717Z,52.73
2023-06-25T13:26:15.212Z,52.69
2023-06-25T13:28:41.713Z,52.80
2023-06-25T13:31:08.353Z,52.77
2023-06-25T13:33:34.929Z,52.84
2023-06-25T13:36:01.467Z,52.50
2023-06-25T13:38:27.997Z,52.05
2023-06-25T13:40:54.487Z,52.40
2023-06-25T13:43:20.942Z,52.12
2023-06-25T13:45:47.447Z,52.50
2023-06-25T13:48:14.011Z,52.32
2023-06-25T13:50:40.520Z,52.08
2023-06-25T13:53:07.043Z,51.77
2023-06-25T13:55:33.510Z,52.28
2023-06-25T13:58:00.502Z,52.09
2023-06-25T14:00:27.328Z,52.16
2023-06-25T14:03:10.542Z,52.04
2023-06-25T14:05:38.531Z,52.42
2023-06-25T14:08:07.188Z,52.25
2023-06-25T14:10:34.287Z,52.31
2023-06-25T14:13:02.365Z,51.93
2023-06-25T14:15:29.603Z,51.99
2023-06-25T14:17:56.805Z,51.91
2023-06-25T14:20:23.623Z,51.73
2023-06-25T14:22:50.080Z,51.74
2023-06-25T14:25:16.937Z,52.07
2023-06-25T14:27:43.469Z,51.84
2023-06-25T14:30:10.680Z,51.71
2023-06-25T14:32:37.437Z,51.77
2023-06-25T14:35:03.968Z,51.78
2023-06-25T14:37:30.492Z,51.47
2023-06-25T14:39:57.197Z,51.73
2023-06-25T14:42:23.991Z,51.60
2023-06-25T14:44:50.636Z,51.08
2023-06-25T14:47:17.257Z,51.57
2023-06-25T14:49:43.820Z,51.04
2023-06-25T14:52:10.330Z,51.47
2023-06-25T14:54:36.774Z,51.48
2023-06-25T14:57:03.457Z,51.40
2023-06-25T14:59:29.920Z,51.17
2023-06-25T15:01:56.578Z,51.13
2023-06-25T15:04:24.015Z,51.25
2023-06-25T15:06:50.880Z,51.18
2023-06-25T15:09:17.395Z,51.30
2023-06-25T15:11:44.420Z,51.12
2023-06-25T15:14:10.901Z,51.25
2023-06-25T15:16:38.256Z,51.41
2023-06-25T15:19:05.180Z,51.15
2023-06-25T15:21:31.704Z,51.26
2023-06-25T15:23:58.172Z,51.04
2023-06-25T15:26:24.642Z,51.04
2023-06-25T15:28:51.289Z,51.33
2023-06-25T15:31:18.020Z,50.95
2023-06-25T15:33:44.500Z,51.08
2023-06-25T15:36:10.939Z,50.98
2023-06-25T15:38:37.432Z,51.18
2023-06-25T15:41:03.869Z,50.98
2023-06-25T15:43:30.386Z,50.83
2023-06-25T15:45:57.584Z,50.93
2023-06-25T15:48:24.717Z,50.95
2023-06-25T15:50:51.240Z,50.72
2023-06-25T15:53:17.786Z,50.91
2023-06-25T15:55:44.771Z,50.76
2023-06-25T15:58:11.385Z,51.10
2023-06-25T16:00:38.891Z,51.29
2023-06-25T16:03:10.640Z,51.15
2023-06-25T16:05:37.446Z,50.88
2023-06-25T16:08:04.270Z,51.13
2023-06-25T16:10:30.796Z,51.03
2023-06-25T16:12:57.504Z,51.00
2023-06-25T16:15:24.025Z,51.23
2023-06-25T16:17:50.555Z,50.94
2023-06-25T16:20:17.144Z,50.75
2023-06-25T16:22:43.763Z,50.82
2023-06-25T16:25:10.297Z,50.86
2023-06-25T16:27:38.834Z,50.89
2023-06-25T16:30:06.381Z,50.91
2023-06-25T16:32:34.547Z,51.00
2023-06-25T16:35:01.334Z,51.01
2023-06-25T16:37:27.890Z,51.05
2023-06-25T16:39:54.833Z,50.94
2023-06-25T16:42:21.349Z,50.75
2023-06-25T16:44:47.892Z,50.68
2023-06-25T16:47:14.486Z,50.69
2023-06-25T16:49:43.779Z,50.46
2023-06-25T16:52:10.379Z,50.63
2023-06-25T16:54:37.910Z,50.71
2023-06-25T16:57:05.373Z,50.72
2023-06-25T16:59:32.423Z,50.76
2023-06-25T17:02:05.974Z,50.31
2023-06-25T17:04:37.934Z,50.59
2023-06-25T17:07:05.784Z,50.53
2023-06-25T17:09:33.422Z,50.50
2023-06-25T17:12:00.239Z,50.46
2023-06-25T17:14:26.734Z,50.46
2023-06-25T17:16:53.661Z,50.23
2023-06-25T17:19:20.943Z,50.53
2023-06-25T17:21:47.955Z,50.63
2023-06-25T17:24:14.645Z,50.72
2023-06-25T17:26:41.902Z,50.11
2023-06-25T17:29:08.406Z,50.63
2023-06-25T17:31:35.407Z,50.29
2023-06-25T17:34:01.971Z,50.40
2023-06-25T17:36:28.685Z,49.94
2023-06-25T17:38:55.885Z,50.22
2023-06-25T17:41:22.509Z,50.03
2023-06-25T17:43:49.345Z,50.01
2023-06-25T17:46:16.178Z,50.46
2023-06-25T17:48:42.707Z,50.18
2023-06-25T17:51:09.178Z,50.15
2023-06-25T17:53:38.929Z,50.30
2023-06-25T17:56:06.302Z,50.07
2023-06-25T17:58:33.056Z,50.32
2023-06-25T18:00:59.696Z,49.82
2023-06-25T18:03:27.408Z,49.95
2023-06-25T18:05:54.063Z,50.10
2023-06-25T18:08:21.447Z,50.23
2023-06-25T18:10:55.096Z,50.08
2023-06-25T18:13:22.295Z,50.00
2023-06-25T18:15:49.308Z,49.45
2023-06-25T18:18:23.387Z,49.29
2023-06-25T18:20:49.903Z,49.14
2023-06-25T18:23:16.452Z,49.43
2023-06-25T18:25:43.439Z,49.44
2023-06-25T18:28:09.990Z,49.44
2023-06-25T18:30:38.403Z,49.15
2023-06-25T18:33:05.918Z,49.50
2023-06-25T18:35:32.766Z,49.27
2023-06-25T18:37:59.319Z,48.99
2023-06-25T18:40:26.638Z,49.21
2023-06-25T18:42:53.280Z,48.88
2023-06-25T18:45:19.997Z,48.76
2023-06-25T18:47:46.804Z,48.92
2023-06-25T18:50:15.059Z,48.45
2023-06-25T18:52:41.903Z,48.48
2023-06-25T18:55:08.839Z,48.77
2023-06-25T18:57:35.297Z,48.49
2023-06-25T19:00:02.142Z,48.29
2023-06-25T19:02:28.968Z,48.60
2023-06-25T19:04:55.670Z,48.36
2023-06-25T19:07:22.194Z,48.19
2023-06-25T19:09:49.095Z,48.40
2023-06-25T19:12:15.989Z,48.49
2023-06-25T19:14:45.836Z,48.21
2023-06-25T19:17:13.373Z,48.11
2023-06-25T19:19:39.826Z,48.32
2023-06-25T19:22:06.427Z,48.08
2023-06-25T19:24:32.860Z,48.12
2023-06-25T19:26:59.330Z,48.28
2023-06-25T19:29:25.786Z,48.26
2023-06-25T19:31:53.134Z,48.15
2023-06-25T19:34:19.689Z,48.20
2023-06-25T19:36:46.209Z,48.43
2023-06-25T19:39:12.754Z,48.20
2023-06-25T19:41:39.284Z,48.41
2023-06-25T19:44:05.912Z,48.85
2023-06-25T19:46:32.605Z,48.20
2023-06-25T19:48:59.450Z,48.44
2023-06-25T19:51:26.090Z,48.27
2023-06-25T19:53:52.532Z,48.46
2023-06-25T19:56:19.247Z,48.38
2023-06-25T19:58:45.725Z,48.57
2023-06-25T20:01:12.261Z,48.48
2023-06-25T20:03:38.737Z,48.69
2023-06-25T20:06:05.202Z,48.45
2023-06-25T20:08:32.321Z,48.69
2023-06-25T20:10:58.810Z,48.55
2023-06-25T20:13:25.334Z,48.62
2023-06-25T20:15:51.800Z,48.68
2023-06-25T20:18:18.276Z,48.66
2023-06-25T20:20:44.715Z,48.83
2023-06-25T20:23:11.181Z,48.83
2023-06-25T20:25:37.625Z,48.73
2023-06-25T20:28:04.141Z,48.76
2023-06-25T20:30:30.626Z,48.68
2023-06-25T20:32:57.996Z,48.67
2023-06-25T20:35:24.622Z,48.84
2023-06-25T20:37:51.168Z,48.96
2023-06-25T20:40:17.862Z,48.95
2023-06-25T20:42:44.392Z,48.94
2023-06-25T20:45:10.925Z,48.88
2023-06-25T20:47:40.184Z,48.93
2023-06-25T20:50:09.169Z,48.96
2023-06-25T20:52:36.405Z,48.74
2023-06-25T20:55:03.011Z,48.56
2023-06-25T20:57:29.793Z,48.73
2023-06-25T20:59:56.260Z,48.67
2023-06-25T21:02:22.824Z,48.62
2023-06-25T21:04:49.400Z,48.66
2023-06-25T21:07:15.921Z,48.61
2023-06-25T21:09:42.410Z,48.61
2023-06-25T21:12:08.944Z,48.50
2023-06-25T21:14:35.415Z,48.46
2023-06-25T21:17:01.864Z,48.36
2023-06-25T21:19:28.514Z,48.61
2023-06-25T21:21:54.967Z,48.40
2023-06-25T21:24:21.486Z,48.66
2023-06-25T21:26:47.991Z,48.54
2023-06-25T21:29:14.506Z,48.82
2023-06-25T21:31:40.979Z,48.86
2023-06-25T21:34:07.474Z,48.86
2023-06-25T21:36:33.988Z,48.85
2023-06-25T21:39:02.749Z,48.62
2023-06-25T21:41:29.232Z,48.53
2023-06-25T21:43:56.863Z,48.55
2023-06-25T21:46:23.678Z,48.45
2023-06-25T21:48:50.219Z,48.94
2023-06-25T21:51:17.240Z,48.95
2023-06-25T21:53:44.132Z,48.83
2023-06-25T21:56:10.596Z,48.81
2023-06-25T21:58:37.028Z,48.87
2023-06-25T22:01:03.521Z,48.84
2023-06-25T22:03:30.070Z,48.72
2023-06-25T22:05:56.627Z,48.53
2023-06-25T22:08:23.093Z,48.84
2023-06-25T22:10:49.573Z,49.07
2023-06-25T22:13:18.708Z,49.06
2023-06-25T22:15:46.761Z,49.18
2023-06-25T22:18:13.635Z,49.25
2023-06-25T22:20:40.294Z,49.03
2023-06-25T22:23:06.872Z,49.17
2023-06-25T22:25:33.301Z,49.00
2023-06-25T22:27:59.752Z,49.41
2023-06-25T22:30:26.212Z,49.20
2023-06-25T22:32:52.808Z,49.20
2023-06-25T22:35:19.326Z,49.34
2023-06-25T22:37:45.802Z,49.45
2023-06-25T22:40:12.305Z,49.44
2023-06-25T22:42:38.980Z,49.63
2023-06-25T22:45:06.010Z,49.55
2023-06-25T22:47:32.622Z,49.43
2023-06-25T22:49:59.308Z,49.43
2023-06-25T22:52:25.796Z,49.91
2023-06-25T22:54:52.552Z,49.85
2023-06-25T22:57:20.405Z,49.71
2023-06-25T22:59:46.978Z,49.73
2023-06-25T23:02:13.434Z,49.96
2023-06-25T23:04:39.939Z,50.10
2023-06-25T23:07:06.435Z,49.94
2023-06-25T23:09:34.492Z,50.09
2023-06-25T23:12:01.108Z,50.28
2023-06-25T23:14:27.612Z,50.22
2023-06-25T23:16:54.062Z,49.97
2023-06-25T23:19:20.623Z,50.36
2023-06-25T23:21:47.839Z,50.00
2023-06-25T23:24:14.706Z,50.43
2023-06-25T23:26:46.875Z,50.61
2023-06-25T23:29:17.820Z,50.25
2023-06-25T23:31:44.704Z,50.48
2023-06-25T23:34:11.380Z,50.34
2023-06-25T23:36:37.932Z,50.66
2023-06-25T23:39:05.004Z,50.16
2023-06-25T23:41:31.428Z,50.87
2023-06-25T23:43:57.924Z,50.68
2023-06-25T23:46:24.515Z,50.85
2023-06-25T23:48:51.046Z,50.51
2023-06-25T23:51:17.690Z,50.95
2023-06-25T23:53:44.282Z,51.23
2023-06-25T23:56:11.037Z,50.55
2023-06-25T23:58:37.521Z,50.95
